KGSO/GSO METAR and TAF weather

Enter ICAO airport designator
Station Type Date Time Source
KGSO METAR 2019/12/06 08:54 UTC NOAA

KGSO 060854Z 19005KT 10SM CLR 00/M03 A3017 RMK AO2 SLP220 T00001033 58001


Station Type Date Time Source
KGSO Decoded METAR 2019/12/06 08:54 UTC NOAA

PIEDMONT TRIAD INTERNATIONAL AIRPORT , NC, United States (KGSO) 36-06N 079-57W 275M
Dec 06, 2019 - 03:54 AM EST / 2019.12.06 0854 UTC
Wind: from the S (190 degrees) at 6 MPH (5 KT):0
Visibility: 10 mile(s):0
Sky conditions: clear
Temperature: 32.0 F (0.0 C)
Windchill: 26 F (-3 C):1
Dew Point: 26.1 F (-3.3 C)
Relative Humidity: 78%
Pressure (altimeter): 30.17 in. Hg (1021 hPa)
Pressure tendency: 0.00 inches (0.1 hPa) lower than three hours ago
ob: KGSO 060854Z 19005KT 10SM CLR 00/M03 A3017 RMK AO2 SLP220 T00001033 58001
cycle: 9

Station Type Date Time Source
KGSO TAF 2019/12/06 06:30 UTC NOAA

TAF KGSO 060527Z 0606/0706 00000KT P6SM SCT250
FM061100 21003KT P6SM BKN130
FM061500 24009KT P6SM BKN080 OVC120
FM061900 25005KT P6SM BKN050 OVC250

Example: see airport list